createdAt,value
2023-03-15T00:00:33.049Z,6.55
2023-03-15T00:03:40.040Z,3.88
2023-03-15T00:06:45.461Z,4.72
2023-03-15T00:09:50.864Z,4.90
2023-03-15T00:12:56.230Z,6.00
2023-03-15T00:16:04.920Z,8.20
2023-03-15T00:22:14.952Z,9.07
2023-03-15T00:25:20.072Z,6.55
2023-03-15T00:28:25.131Z,7.30
2023-03-15T00:31:33.307Z,7.25
2023-03-15T00:34:38.478Z,5.97
2023-03-15T00:37:43.866Z,10.13
2023-03-15T00:40:49.036Z,6.75
2023-03-15T00:43:54.521Z,5.18
2023-03-15T00:47:02.189Z,4.65
2023-03-15T00:50:07.631Z,6.80
2023-03-15T00:53:12.833Z,7.85
2023-03-15T00:56:19.365Z,5.03
2023-03-15T00:59:25.012Z,7.13
2023-03-15T01:02:32.817Z,9.32
2023-03-15T01:05:39.388Z,6.45
2023-03-15T01:08:44.986Z,6.05
2023-03-15T01:11:50.379Z,5.97
2023-03-15T01:14:55.586Z,7.13
2023-03-15T01:18:03.935Z,11.05
2023-03-15T01:21:09.909Z,7.82
2023-03-15T01:24:16.433Z,7.78
2023-03-15T01:27:21.693Z,8.68
2023-03-15T01:30:27.125Z,7.32
2023-03-15T01:33:35.488Z,4.80
2023-03-15T01:36:41.050Z,9.23
2023-03-15T01:39:46.311Z,6.68
2023-03-15T01:42:54.963Z,7.20
2023-03-15T01:46:05.817Z,9.57
2023-03-15T01:49:17.621Z,6.70
2023-03-15T01:52:24.911Z,8.48
2023-03-15T01:55:33.827Z,5.60
2023-03-15T01:58:50.152Z,4.90
2023-03-15T02:01:57.046Z,5.55
2023-03-15T02:05:10.060Z,6.80
2023-03-15T02:08:16.368Z,5.60
2023-03-15T02:11:23.413Z,7.13
2023-03-15T02:14:28.956Z,7.30
2023-03-15T02:17:37.713Z,7.22
2023-03-15T02:20:53.306Z,6.22
2023-03-15T02:24:05.435Z,10.90
2023-03-15T02:27:11.239Z,8.10
2023-03-15T02:30:19.489Z,11.43
2023-03-15T02:33:27.812Z,8.07
2023-03-15T02:39:37.593Z,7.32
2023-03-15T02:42:43.054Z,7.63
2023-03-15T02:45:51.014Z,7.63
2023-03-15T02:48:56.941Z,7.40
2023-03-15T02:52:02.745Z,6.68
2023-03-15T02:55:08.618Z,7.75
2023-03-15T02:58:13.766Z,6.70
2023-03-15T03:01:22.104Z,6.90
2023-03-15T03:04:27.144Z,7.53
2023-03-15T03:07:32.460Z,7.78
2023-03-15T03:10:41.998Z,6.32
2023-03-15T03:13:47.423Z,5.32
2023-03-15T03:16:55.496Z,7.40
2023-03-15T03:20:01.384Z,7.85
2023-03-15T03:23:14.044Z,7.45
2023-03-15T03:26:21.903Z,7.93
2023-03-15T03:29:28.864Z,9.90
2023-03-15T03:35:45.152Z,8.63
2023-03-15T03:38:51.912Z,10.93
2023-03-15T03:41:57.092Z,8.15
2023-03-15T03:45:02.306Z,7.82
2023-03-15T03:48:15.254Z,9.82
2023-03-15T03:51:23.167Z,6.05
2023-03-15T03:54:28.770Z,7.93
2023-03-15T03:57:35.188Z,9.82
2023-03-15T04:00:43.254Z,9.38
2023-03-15T04:03:49.477Z,7.82
2023-03-15T04:10:15.137Z,7.13
2023-03-15T04:13:24.079Z,8.90
2023-03-15T04:16:30.042Z,8.05
2023-03-15T04:19:40.114Z,8.80
2023-03-15T04:22:49.937Z,7.95
2023-03-15T04:26:18.456Z,9.35
2023-03-15T04:29:47.980Z,9.77
2023-03-15T04:33:12.451Z,8.07
2023-03-15T04:36:38.549Z,9.52
2023-03-15T04:40:15.723Z,11.30
2023-03-15T04:43:36.930Z,13.65
2023-03-15T04:46:55.028Z,6.97
2023-03-15T04:50:11.781Z,9.30
2023-03-15T04:53:35.363Z,8.30
2023-03-15T04:56:50.361Z,7.82
2023-03-15T05:00:06.472Z,8.05
2023-03-15T05:03:37.939Z,11.18
2023-03-15T05:06:58.273Z,7.55
2023-03-15T05:10:03.685Z,8.63
2023-03-15T05:13:28.920Z,9.85
2023-03-15T05:17:00.075Z,8.32
2023-03-15T05:20:13.692Z,9.85
2023-03-15T05:23:53.997Z,9.13
2023-03-15T05:30:39.720Z,8.45
2023-03-15T05:33:56.561Z,7.68
2023-03-15T05:37:15.080Z,10.13
2023-03-15T05:40:43.359Z,9.55
2023-03-15T05:44:14.576Z,9.73
2023-03-15T05:47:52.314Z,10.05
2023-03-15T05:51:29.803Z,9.85
2023-03-15T05:54:53.861Z,10.23
2023-03-15T05:58:13.737Z,9.13
2023-03-15T06:01:39.437Z,10.55
2023-03-15T06:05:10.985Z,9.32
2023-03-15T06:08:18.773Z,10.82
2023-03-15T06:11:26.924Z,8.98
2023-03-15T06:14:32.316Z,8.50
2023-03-15T06:17:43.865Z,9.02
2023-03-15T06:20:49.467Z,8.20
2023-03-15T06:23:58.848Z,13.27
2023-03-15T06:27:04.485Z,10.98
2023-03-15T06:30:12.119Z,9.40
2023-03-15T06:33:18.250Z,8.32
2023-03-15T06:36:25.361Z,10.20
2023-03-15T06:39:34.524Z,10.35
2023-03-15T06:42:42.093Z,9.55
2023-03-15T06:45:49.909Z,10.70
2023-03-15T06:48:55.404Z,11.00
2023-03-15T06:52:00.472Z,11.48
2023-03-15T06:55:10.554Z,12.13
2023-03-15T06:58:15.968Z,10.88
2023-03-15T07:01:21.164Z,9.90
2023-03-15T07:04:27.001Z,10.05
2023-03-15T07:07:32.561Z,8.23
2023-03-15T07:10:40.258Z,10.07
2023-03-15T07:13:45.569Z,12.57
2023-03-15T07:16:50.830Z,11.70
2023-03-15T07:19:56.978Z,9.52
2023-03-15T07:23:02.029Z,11.93
2023-03-15T07:26:10.223Z,8.88
2023-03-15T07:29:15.504Z,9.10
2023-03-15T07:32:21.459Z,13.20
2023-03-15T07:35:26.520Z,8.30
2023-03-15T07:38:31.879Z,10.30
2023-03-15T07:41:39.644Z,8.75
2023-03-15T07:44:53.461Z,9.85
2023-03-15T07:47:59.046Z,10.65
2023-03-15T07:51:04.205Z,8.82
2023-03-15T07:54:09.493Z,11.05
2023-03-15T07:57:17.518Z,10.75
2023-03-15T08:00:23.456Z,11.27
2023-03-15T08:03:29.459Z,10.63
2023-03-15T08:06:35.270Z,10.82
2023-03-15T08:09:40.573Z,11.75
2023-03-15T08:12:49.012Z,13.13
2023-03-15T08:15:54.279Z,12.95
2023-03-15T08:18:59.707Z,12.18
2023-03-15T08:22:04.926Z,10.25
2023-03-15T08:25:10.288Z,11.35
2023-03-15T08:28:18.329Z,10.90
2023-03-15T08:31:23.397Z,17.40
2023-03-15T08:34:29.264Z,12.38
2023-03-15T08:37:34.431Z,11.50
2023-03-15T08:40:41.069Z,11.55
2023-03-15T08:43:48.955Z,14.07
2023-03-15T08:46:54.478Z,9.45
2023-03-15T08:49:59.894Z,12.18
2023-03-15T08:53:05.639Z,13.90
2023-03-15T08:56:11.299Z,11.88
2023-03-15T08:59:29.003Z,15.18
2023-03-15T09:02:36.338Z,11.45
2023-03-15T09:05:41.657Z,12.30
2023-03-15T09:08:46.810Z,12.63
2023-03-15T09:11:52.176Z,14.77
2023-03-15T09:15:00.152Z,11.63
2023-03-15T09:18:05.511Z,14.95
2023-03-15T09:21:10.573Z,10.75
2023-03-15T09:24:15.953Z,13.45
2023-03-15T09:27:21.341Z,13.38
2023-03-15T09:30:29.533Z,11.05
2023-03-15T09:33:34.795Z,13.27
2023-03-15T09:36:40.365Z,14.68
2023-03-15T09:39:45.441Z,16.85
2023-03-15T09:43:09.120Z,12.73
2023-03-15T09:46:22.474Z,13.73
2023-03-15T09:49:35.745Z,12.27
2023-03-15T09:52:44.078Z,12.07
2023-03-15T09:55:49.762Z,10.63
2023-03-15T09:58:55.569Z,14.77
2023-03-15T10:02:04.633Z,14.32
2023-03-15T10:05:13.902Z,12.65
2023-03-15T10:08:20.731Z,12.93
2023-03-15T10:11:30.324Z,11.65
2023-03-15T10:14:44.961Z,17.35
2023-03-15T10:17:55.821Z,21.05
2023-03-15T10:21:05.525Z,14.27
2023-03-15T10:24:17.956Z,12.30
2023-03-15T10:27:24.802Z,13.13
2023-03-15T10:30:31.520Z,12.88
2023-03-15T10:33:40.348Z,15.23
2023-03-15T10:36:49.579Z,12.73
2023-03-15T10:40:00.080Z,11.23
2023-03-15T10:43:05.388Z,11.77
2023-03-15T10:46:11.668Z,12.77
2023-03-15T10:49:19.945Z,12.68
2023-03-15T10:52:35.682Z,15.50
2023-03-15T10:55:45.512Z,13.13
2023-03-15T10:59:05.560Z,10.52
2023-03-15T11:02:22.926Z,10.95
2023-03-15T11:05:32.732Z,10.70
2023-03-15T11:08:40.555Z,10.52
2023-03-15T11:11:52.282Z,13.60
2023-03-15T11:15:00.712Z,12.30
2023-03-15T11:18:07.118Z,10.63
2023-03-15T11:21:17.598Z,10.93
2023-03-15T11:24:26.822Z,12.43
2023-03-15T11:27:32.661Z,10.27
2023-03-15T11:30:37.984Z,13.77
2023-03-15T11:33:46.684Z,10.30
2023-03-15T11:37:07.683Z,10.60
2023-03-15T11:40:19.277Z,14.63
2023-03-15T11:43:26.334Z,11.48
2023-03-15T11:46:34.137Z,10.52
2023-03-15T11:49:40.757Z,12.38
2023-03-15T11:52:51.125Z,9.00
2023-03-15T11:55:58.745Z,10.30
2023-03-15T11:59:08.919Z,9.93
2023-03-15T12:02:31.404Z,15.35
2023-03-15T12:05:47.532Z,7.80
2023-03-15T12:08:55.931Z,19.52
2023-03-15T12:15:07.012Z,11.70
2023-03-15T12:18:16.711Z,11.52
2023-03-15T12:21:24.163Z,10.02
2023-03-15T12:24:33.242Z,15.30
2023-03-15T12:27:38.932Z,11.43
2023-03-15T12:30:45.512Z,10.40
2023-03-15T12:33:52.220Z,10.45
2023-03-15T12:36:59.749Z,9.32
2023-03-15T12:40:27.693Z,9.50
2023-03-15T12:43:39.304Z,9.85
2023-03-15T12:46:57.887Z,13.10
2023-03-15T12:50:23.149Z,10.25
2023-03-15T12:53:39.168Z,10.32
2023-03-15T12:56:50.756Z,12.65
2023-03-15T12:59:58.344Z,17.10
2023-03-15T13:03:07.252Z,12.20
2023-03-15T13:06:16.340Z,8.85
2023-03-15T13:09:25.659Z,12.70
2023-03-15T13:12:37.552Z,10.70
2023-03-15T13:15:45.840Z,12.25
2023-03-15T13:18:55.856Z,13.30
2023-03-15T13:22:08.772Z,11.40
2023-03-15T13:25:17.763Z,11.93
2023-03-15T13:28:26.656Z,10.05
2023-03-15T13:31:33.321Z,8.73
2023-03-15T13:34:38.959Z,9.63
2023-03-15T13:37:45.379Z,11.45
2023-03-15T13:40:51.032Z,8.98
2023-03-15T13:43:59.381Z,10.73
2023-03-15T13:47:04.576Z,9.60
2023-03-15T13:50:10.725Z,8.48
2023-03-15T13:53:20.309Z,8.02
2023-03-15T13:56:37.401Z,11.10
2023-03-15T13:59:53.736Z,10.15
2023-03-15T14:03:01.136Z,10.13
2023-03-15T14:06:06.479Z,9.95
2023-03-15T14:09:13.417Z,11.35
2023-03-15T14:12:23.163Z,10.15
2023-03-15T14:15:39.934Z,9.90
2023-03-15T14:18:45.359Z,10.48
2023-03-15T14:21:54.424Z,9.23
2023-03-15T14:24:59.777Z,9.27
2023-03-15T14:28:05.332Z,13.20
2023-03-15T14:31:23.767Z,8.93
2023-03-15T14:34:34.390Z,10.90
2023-03-15T14:37:41.028Z,10.35
2023-03-15T14:40:46.455Z,14.80
2023-03-15T14:43:51.799Z,15.57
2023-03-15T14:46:59.591Z,13.25
2023-03-15T14:50:05.148Z,13.52
2023-03-15T14:53:11.364Z,13.30
2023-03-15T14:56:18.690Z,11.95
2023-03-15T14:59:25.231Z,18.67
2023-03-15T15:02:33.029Z,13.90
2023-03-15T15:05:38.951Z,12.05
2023-03-15T15:08:46.113Z,14.43
2023-03-15T15:11:51.490Z,12.52
2023-03-15T15:14:56.832Z,15.50
2023-03-15T15:18:04.897Z,14.13
2023-03-15T15:21:14.932Z,12.43
2023-03-15T15:24:21.709Z,12.98
2023-03-15T15:27:27.065Z,11.77
2023-03-15T15:30:32.534Z,13.73
2023-03-15T15:33:40.133Z,14.05
2023-03-15T15:36:46.153Z,16.70
2023-03-15T15:39:51.258Z,16.38
2023-03-15T15:42:56.560Z,13.02
2023-03-15T15:46:02.009Z,13.60
2023-03-15T15:49:09.933Z,10.05
2023-03-15T15:52:15.618Z,11.00
2023-03-15T15:55:21.578Z,13.70
2023-03-15T15:58:26.897Z,13.52
2023-03-15T16:01:32.135Z,12.30
2023-03-15T16:04:42.217Z,14.00
2023-03-15T16:07:47.884Z,14.45
2023-03-15T16:10:53.210Z,14.15
2023-03-15T16:13:58.362Z,12.52
2023-03-15T16:17:03.688Z,12.63
2023-03-15T16:20:12.516Z,15.18
2023-03-15T16:23:20.874Z,11.88
2023-03-15T16:26:25.973Z,13.63
2023-03-15T16:29:34.487Z,15.20
2023-03-15T16:32:44.487Z,18.23
2023-03-15T16:35:53.456Z,12.88
2023-03-15T16:42:03.332Z,9.93
2023-03-15T16:45:12.917Z,9.05
2023-03-15T16:48:18.370Z,10.88
2023-03-15T16:51:26.381Z,8.48
2023-03-15T16:57:57.603Z,9.05
2023-03-15T17:01:02.987Z,10.23
2023-03-15T17:04:08.572Z,12.85
2023-03-15T17:07:18.005Z,10.00
2023-03-15T17:10:25.545Z,9.93
2023-03-15T17:13:33.437Z,15.37
2023-03-15T17:16:39.280Z,11.57
2023-03-15T17:19:44.844Z,11.35
2023-03-15T17:22:54.590Z,8.85
2023-03-15T17:26:00.636Z,11.80
2023-03-15T17:29:05.901Z,12.50
2023-03-15T17:32:14.157Z,12.35
2023-03-15T17:35:20.064Z,13.63
2023-03-15T17:38:32.995Z,14.23
2023-03-15T17:41:39.183Z,14.40
2023-03-15T17:44:44.748Z,15.35
2023-03-15T17:47:52.243Z,14.25
2023-03-15T17:50:57.791Z,13.05
2023-03-15T17:54:10.066Z,17.98
2023-03-15T17:57:18.520Z,14.68
2023-03-15T18:03:30.294Z,16.38
2023-03-15T18:06:35.665Z,17.17
2023-03-15T18:09:43.819Z,18.27
2023-03-15T18:12:51.038Z,15.63
2023-03-15T18:15:56.577Z,16.50
2023-03-15T18:19:02.028Z,14.00
2023-03-15T18:22:07.259Z,14.50
2023-03-15T18:25:20.207Z,12.05
2023-03-15T18:28:25.697Z,15.18
2023-03-15T18:31:31.757Z,14.75
2023-03-15T18:34:36.974Z,13.65
2023-03-15T18:37:42.324Z,16.70
2023-03-15T18:40:51.363Z,12.85
2023-03-15T18:43:56.627Z,16.52
2023-03-15T18:47:02.549Z,11.73
2023-03-15T18:50:10.479Z,12.77
2023-03-15T18:53:15.921Z,15.63
2023-03-15T18:56:25.207Z,11.60
2023-03-15T18:59:30.448Z,11.32
2023-03-15T19:02:36.027Z,12.32
2023-03-15T19:05:42.026Z,15.00
2023-03-15T19:08:49.112Z,22.27
2023-03-15T19:11:56.778Z,13.60
2023-03-15T19:15:02.194Z,17.83
2023-03-15T19:18:08.294Z,15.98
2023-03-15T19:21:13.819Z,10.10
2023-03-15T19:24:19.214Z,12.35
2023-03-15T19:27:27.703Z,11.32
2023-03-15T19:30:32.859Z,12.60
2023-03-15T19:33:38.652Z,20.58
2023-03-15T19:36:43.915Z,17.52
2023-03-15T19:39:49.770Z,16.05
2023-03-15T19:42:58.122Z,15.98
2023-03-15T19:46:05.708Z,14.52
2023-03-15T19:49:10.957Z,13.25
2023-03-15T19:52:16.469Z,14.10
2023-03-15T19:55:22.771Z,20.52
2023-03-15T19:58:30.895Z,20.88
2023-03-15T20:01:36.121Z,12.60
2023-03-15T20:04:41.932Z,13.48
2023-03-15T20:07:47.753Z,11.50
2023-03-15T20:11:01.870Z,20.23
2023-03-15T20:14:09.649Z,11.82
2023-03-15T20:17:15.377Z,9.20
2023-03-15T20:20:21.904Z,13.52
2023-03-15T20:23:28.083Z,16.45
2023-03-15T20:26:33.282Z,16.23
2023-03-15T20:29:40.984Z,14.70
2023-03-15T20:32:46.373Z,12.00
2023-03-15T20:35:51.778Z,17.90
2023-03-15T20:38:56.810Z,7.32
2023-03-15T20:42:02.045Z,14.18
2023-03-15T20:45:11.089Z,11.40
2023-03-15T20:48:17.260Z,14.45
2023-03-15T20:51:24.450Z,14.73
2023-03-15T20:54:29.873Z,13.07
2023-03-15T20:57:36.798Z,15.23
2023-03-15T21:00:45.849Z,10.23
2023-03-15T21:03:57.965Z,11.20
2023-03-15T21:07:05.036Z,10.10
2023-03-15T21:10:11.287Z,13.50
2023-03-15T21:13:17.928Z,12.52
2023-03-15T21:16:26.969Z,19.23
2023-03-15T21:19:33.018Z,16.20
2023-03-15T21:22:38.577Z,14.10
2023-03-15T21:25:44.708Z,16.80
2023-03-15T21:28:50.924Z,15.15
2023-03-15T21:31:59.643Z,10.43
2023-03-15T21:35:05.262Z,19.58
2023-03-15T21:38:11.178Z,14.75
2023-03-15T21:41:16.385Z,16.45
2023-03-15T21:44:22.339Z,16.10
2023-03-15T21:47:30.531Z,15.65
2023-03-15T21:53:41.369Z,12.07
2023-03-15T21:56:46.632Z,13.02
2023-03-15T21:59:51.950Z,13.82
2023-03-15T22:03:00.289Z,13.90
2023-03-15T22:06:05.450Z,13.55
2023-03-15T22:09:10.587Z,14.50
2023-03-15T22:12:16.172Z,18.95
2023-03-15T22:15:22.178Z,16.98
2023-03-15T22:18:32.226Z,12.50
2023-03-15T22:21:37.517Z,13.68
2023-03-15T22:24:42.657Z,14.70
2023-03-15T22:27:48.024Z,23.50
2023-03-15T22:30:53.721Z,17.77
2023-03-15T22:34:03.049Z,15.60
2023-03-15T22:37:09.938Z,17.63
2023-03-15T22:40:16.869Z,22.83
2023-03-15T22:43:22.120Z,20.50
2023-03-15T22:46:27.314Z,16.98
2023-03-15T22:49:35.209Z,17.30
2023-03-15T22:52:40.953Z,26.50
2023-03-15T22:55:46.421Z,17.70
2023-03-15T22:58:52.448Z,15.68
2023-03-15T23:01:58.651Z,19.52
2023-03-15T23:05:06.509Z,18.30
2023-03-15T23:08:12.176Z,19.27
2023-03-15T23:11:17.432Z,18.58
2023-03-15T23:14:22.731Z,19.52
2023-03-15T23:17:27.813Z,18.77
2023-03-15T23:20:36.091Z,20.30
2023-03-15T23:23:42.929Z,23.90
2023-03-15T23:26:48.083Z,20.73
2023-03-15T23:29:54.837Z,22.70
2023-03-15T23:33:01.045Z,19.13
2023-03-15T23:36:09.261Z,18.80
2023-03-15T23:39:14.700Z,22.98
2023-03-15T23:42:19.819Z,23.92
2023-03-15T23:45:24.958Z,17.60
2023-03-15T23:48:30.671Z,31.67
2023-03-15T23:51:38.975Z,20.50
2023-03-15T23:54:44.756Z,18.27
2023-03-15T23:57:50.285Z,21.45
